createdAt,value
2019-02-27T00:00:19.815Z,97137.53
2019-02-27T00:03:07.595Z,97129.75
2019-02-27T00:05:55.485Z,97137.02
2019-02-27T00:08:43.493Z,97139.95
2019-02-27T00:11:31.387Z,97128.69
2019-02-27T00:14:19.259Z,97133.84
2019-02-27T00:17:08.295Z,97131.64
2019-02-27T00:19:56.292Z,97130.78
2019-02-27T00:22:44.408Z,97131.82
2019-02-27T00:25:35.917Z,97134.81
2019-02-27T00:28:23.427Z,97131.35
2019-02-27T00:31:12.098Z,97124.35
2019-02-27T00:34:00.533Z,97118.69
2019-02-27T00:36:48.890Z,97118.12
2019-02-27T00:39:36.747Z,97111.94
2019-02-27T00:42:33.260Z,97116.77
2019-02-27T00:45:14.251Z,97116.52
2019-02-27T00:48:02.585Z,97113.50
2019-02-27T00:50:50.410Z,97106.19
2019-02-27T00:53:38.592Z,97102.59
2019-02-27T00:56:26.628Z,97107.73
2019-02-27T00:59:14.969Z,97105.95
2019-02-27T01:02:03.278Z,97102.98
2019-02-27T01:04:50.827Z,97098.64
2019-02-27T01:07:38.918Z,97100.77
2019-02-27T01:10:27.027Z,97092.90
2019-02-27T01:13:14.673Z,97094.29
2019-02-27T01:16:02.832Z,97095.30
2019-02-27T01:18:51.051Z,97091.55
2019-02-27T01:21:39.029Z,97083.77
2019-02-27T01:24:27.329Z,97080.25
2019-02-27T01:27:15.493Z,97085.11
2019-02-27T01:30:03.282Z,97082.70
2019-02-27T01:32:51.508Z,97083.53
2019-02-27T01:35:40.029Z,97077.91
2019-02-27T01:38:27.831Z,97074.87
2019-02-27T01:41:16.070Z,97079.49
2019-02-27T01:44:04.178Z,97063.97
2019-02-27T01:46:54.536Z,97062.34
2019-02-27T01:49:41.931Z,97061.23
2019-02-27T01:52:33.952Z,97058.55
2019-02-27T01:55:21.827Z,97056.09
2019-02-27T01:58:09.611Z,97052.04
2019-02-27T02:00:58.119Z,97053.34
2019-02-27T02:03:47.461Z,97048.22
2019-02-27T02:06:35.320Z,97039.64
2019-02-27T02:09:34.369Z,97036.27
2019-02-27T02:12:28.812Z,97032.14
2019-02-27T02:16:19.416Z,97038.22
2019-02-27T02:19:48.775Z,97034.41
2019-02-27T02:23:14.086Z,97039.56
2019-02-27T02:26:28.021Z,97033.06
2019-02-27T02:29:59.101Z,97031.91
2019-02-27T02:33:00.007Z,97026.91
2019-02-27T02:36:43.154Z,97026.63
2019-02-27T02:40:11.079Z,97018.69
2019-02-27T02:43:23.696Z,97023.61
2019-02-27T02:46:36.078Z,97020.91
2019-02-27T02:50:08.534Z,97019.78
2019-02-27T02:53:11.829Z,97013.58
2019-02-27T02:56:24.749Z,97010.39
2019-02-27T02:59:37.912Z,97003.08
2019-02-27T03:02:39.976Z,97002.45
2019-02-27T03:06:12.201Z,96999.23
2019-02-27T03:09:36.592Z,96995.97
2019-02-27T03:13:33.352Z,96998.39
2019-02-27T03:17:20.393Z,96995.92
2019-02-27T03:20:43.965Z,96996.83
2019-02-27T03:24:01.420Z,96996.38
2019-02-27T03:27:30.938Z,96995.80
2019-02-27T03:30:57.581Z,96988.77
2019-02-27T03:34:22.043Z,97000.16
2019-02-27T03:37:33.439Z,97002.62
2019-02-27T03:40:48.127Z,96999.56
2019-02-27T03:43:55.916Z,96999.77
2019-02-27T03:47:16.681Z,96992.72
2019-02-27T03:50:49.411Z,96996.54
2019-02-27T03:54:07.677Z,96994.73
2019-02-27T03:57:32.915Z,96989.03
2019-02-27T04:00:30.834Z,96991.44
2019-02-27T04:04:05.846Z,96980.98
2019-02-27T04:07:46.292Z,96977.45
2019-02-27T04:10:34.427Z,96983.27
2019-02-27T04:13:26.413Z,96989.12
2019-02-27T04:16:11.902Z,96985.08
2019-02-27T04:19:04.574Z,96983.45
2019-02-27T04:21:50.010Z,96985.02
2019-02-27T04:24:38.000Z,96992.34
2019-02-27T04:27:25.972Z,96986.68
2019-02-27T04:30:16.468Z,96984.27
2019-02-27T04:33:04.332Z,96978.40
2019-02-27T04:35:52.701Z,96988.28
2019-02-27T04:38:40.687Z,96975.22
2019-02-27T04:41:28.865Z,96979.55
2019-02-27T04:44:16.937Z,96979.18
2019-02-27T04:47:04.967Z,96974.80
2019-02-27T04:49:52.950Z,96975.02
2019-02-27T04:52:41.137Z,96973.95
2019-02-27T04:55:29.321Z,96976.63
2019-02-27T04:58:17.412Z,96986.30
2019-02-27T05:01:05.574Z,96984.42
2019-02-27T05:03:53.515Z,96979.27
2019-02-27T05:06:41.404Z,96973.39
2019-02-27T05:09:33.544Z,96977.61
2019-02-27T05:12:19.296Z,96977.13
2019-02-27T05:15:07.231Z,96977.45
2019-02-27T05:17:56.219Z,96973.14
2019-02-27T05:20:45.670Z,96983.47
2019-02-27T05:23:34.186Z,96983.55
2019-02-27T05:26:22.324Z,96984.71
2019-02-27T05:29:10.489Z,96982.75
2019-02-27T05:31:58.698Z,96983.72
2019-02-27T05:34:49.828Z,96991.03
2019-02-27T05:37:39.260Z,96985.76
2019-02-27T05:40:26.668Z,96978.71
2019-02-27T05:43:14.534Z,96980.81
2019-02-27T05:46:03.267Z,96977.45
2019-02-27T05:48:53.352Z,96982.45
2019-02-27T05:51:41.187Z,96980.78
2019-02-27T05:54:30.022Z,96976.20
2019-02-27T05:57:21.051Z,96976.38
2019-02-27T06:00:11.801Z,96977.55
2019-02-27T06:02:59.820Z,96975.45
2019-02-27T06:05:49.784Z,96977.36
2019-02-27T06:08:38.112Z,96980.44
2019-02-27T06:11:27.056Z,96979.40
2019-02-27T06:14:15.864Z,96977.30
2019-02-27T06:17:04.029Z,96971.72
2019-02-27T06:19:51.697Z,96987.23
2019-02-27T06:22:39.736Z,96984.08
2019-02-27T06:25:27.399Z,96985.09
2019-02-27T06:28:18.525Z,96988.45
2019-02-27T06:31:05.118Z,96977.02
2019-02-27T06:33:53.263Z,96991.41
2019-02-27T06:36:42.875Z,96986.53
2019-02-27T06:39:34.165Z,96985.36
2019-02-27T06:42:20.259Z,96988.20
2019-02-27T06:45:10.211Z,96986.45
2019-02-27T06:47:59.377Z,96983.92
2019-02-27T06:50:48.900Z,96979.87
2019-02-27T06:53:37.628Z,96985.01
2019-02-27T06:56:25.677Z,96977.38
2019-02-27T06:59:13.453Z,96974.67
2019-02-27T07:02:01.367Z,96978.43
2019-02-27T07:04:49.479Z,96975.27
2019-02-27T07:07:37.601Z,96977.78
2019-02-27T07:10:25.340Z,96976.45
2019-02-27T07:13:13.194Z,96968.83
2019-02-27T07:16:01.526Z,96975.87
2019-02-27T07:18:49.721Z,96971.97
2019-02-27T07:21:37.884Z,96966.58
2019-02-27T07:24:26.121Z,96971.98
2019-02-27T07:27:13.877Z,96977.66
2019-02-27T07:30:01.561Z,96969.11
2019-02-27T07:32:49.747Z,96971.66
2019-02-27T07:35:37.857Z,96974.83
2019-02-27T07:38:26.357Z,96974.33
2019-02-27T07:41:17.475Z,96973.84
2019-02-27T07:44:03.617Z,96970.11
2019-02-27T07:46:51.563Z,96970.34
2019-02-27T07:49:39.514Z,96971.79
2019-02-27T07:52:32.112Z,96968.82
2019-02-27T07:55:22.013Z,96960.05
2019-02-27T07:58:06.131Z,96960.32
2019-02-27T08:00:53.787Z,96957.25
2019-02-27T08:03:44.813Z,96957.04
2019-02-27T08:06:31.633Z,96952.81
2019-02-27T08:09:19.411Z,96947.38
2019-02-27T08:12:07.105Z,96947.36
2019-02-27T08:14:55.069Z,96947.40
2019-02-27T08:17:42.852Z,96941.73
2019-02-27T08:20:31.127Z,96939.66
2019-02-27T08:23:18.772Z,96939.02
2019-02-27T08:26:07.025Z,96944.10
2019-02-27T08:28:55.192Z,96936.75
2019-02-27T08:31:43.377Z,96933.77
2019-02-27T08:34:31.336Z,96934.92
2019-02-27T08:37:20.280Z,96934.85
2019-02-27T08:40:09.270Z,96937.73
2019-02-27T08:42:57.309Z,96929.42
2019-02-27T08:45:45.698Z,96933.05
2019-02-27T08:48:33.586Z,96928.08
2019-02-27T08:51:21.764Z,96926.45
2019-02-27T08:54:09.800Z,96917.14
2019-02-27T08:56:58.010Z,96921.31
2019-02-27T08:59:46.102Z,96913.58
2019-02-27T09:02:34.282Z,96914.91
2019-02-27T09:05:23.452Z,96910.42
2019-02-27T09:08:11.425Z,96909.94
2019-02-27T09:11:05.363Z,96909.47
2019-02-27T09:13:49.200Z,96905.31
2019-02-27T09:16:37.277Z,96909.42
2019-02-27T09:19:25.236Z,96909.20
2019-02-27T09:22:13.218Z,96908.69
2019-02-27T09:25:01.257Z,96908.41
2019-02-27T09:27:49.218Z,96907.58
2019-02-27T09:30:37.250Z,96905.02
2019-02-27T09:33:25.132Z,96907.34
2019-02-27T09:36:13.110Z,96900.05
2019-02-27T09:39:01.105Z,96893.80
2019-02-27T09:41:48.950Z,96899.08
2019-02-27T09:44:37.268Z,96893.66
2019-02-27T09:47:25.911Z,96893.34
2019-02-27T09:50:27.197Z,96891.34
2019-02-27T09:53:15.150Z,96886.88
2019-02-27T09:56:02.930Z,96885.98
2019-02-27T09:58:50.634Z,96874.29
2019-02-27T10:01:38.466Z,96875.98
2019-02-27T10:04:28.818Z,96867.33
2019-02-27T10:07:17.112Z,96861.23
2019-02-27T10:10:10.238Z,96859.72
2019-02-27T10:12:55.799Z,96853.58
2019-02-27T10:15:43.765Z,96846.00
2019-02-27T10:18:31.511Z,96840.84
2019-02-27T10:21:19.185Z,96835.91
2019-02-27T10:24:07.525Z,96834.83
2019-02-27T10:26:55.609Z,96827.61
2019-02-27T10:29:47.765Z,96827.78
2019-02-27T10:32:36.459Z,96828.09
2019-02-27T10:35:23.147Z,96827.59
2019-02-27T10:38:11.102Z,96823.80
2019-02-27T10:40:59.169Z,96818.58
2019-02-27T10:43:46.874Z,96812.25
2019-02-27T10:46:34.904Z,96802.65
2019-02-27T10:49:23.125Z,96801.11
2019-02-27T10:52:11.435Z,96795.10
2019-02-27T10:54:59.287Z,96786.94
2019-02-27T10:57:47.178Z,96784.03
2019-02-27T11:00:35.195Z,96778.28
2019-02-27T11:03:26.406Z,96768.29
2019-02-27T11:06:13.089Z,96764.92
2019-02-27T11:09:04.504Z,96767.47
2019-02-27T11:11:53.754Z,96763.48
2019-02-27T11:14:40.548Z,96760.67
2019-02-27T11:17:28.197Z,96752.90
2019-02-27T11:20:20.301Z,96751.54
2019-02-27T11:23:07.110Z,96757.67
2019-02-27T11:25:56.963Z,96755.92
2019-02-27T11:28:47.578Z,96748.58
2019-02-27T11:31:34.777Z,96748.00
2019-02-27T11:34:23.160Z,96745.03
2019-02-27T11:37:13.787Z,96736.47
2019-02-27T11:40:01.033Z,96732.39
2019-02-27T11:42:48.961Z,96724.89
2019-02-27T11:45:36.951Z,96717.59
2019-02-27T11:48:25.110Z,96717.17
2019-02-27T11:51:13.959Z,96717.16
2019-02-27T11:54:04.205Z,96706.50
2019-02-27T11:56:56.197Z,96701.87
2019-02-27T11:59:41.588Z,96700.46
2019-02-27T12:02:36.727Z,96700.73
2019-02-27T12:05:19.449Z,96695.84
2019-02-27T12:08:07.264Z,96693.80
2019-02-27T12:10:55.182Z,96690.03
2019-02-27T12:13:43.452Z,96683.06
2019-02-27T12:16:33.343Z,96682.61
2019-02-27T12:19:21.398Z,96672.64
2019-02-27T12:22:09.628Z,96673.03
2019-02-27T12:24:58.348Z,96667.42
2019-02-27T12:27:49.929Z,96671.59
2019-02-27T12:30:37.341Z,96662.75
2019-02-27T12:33:29.143Z,96659.02
2019-02-27T12:36:18.736Z,96659.55
2019-02-27T12:39:08.179Z,96650.95
2019-02-27T12:41:55.837Z,96641.33
2019-02-27T12:44:44.011Z,96645.72
2019-02-27T12:47:32.106Z,96643.86
2019-02-27T12:50:21.241Z,96640.03
2019-02-27T12:53:08.892Z,96640.82
2019-02-27T12:55:57.049Z,96632.44
2019-02-27T12:58:45.013Z,96627.78
2019-02-27T13:01:32.988Z,96620.17
2019-02-27T13:04:20.964Z,96617.20
2019-02-27T13:07:10.773Z,96613.36
2019-02-27T13:09:59.370Z,96609.05
2019-02-27T13:12:49.164Z,96608.84
2019-02-27T13:15:38.350Z,96609.40
2019-02-27T13:18:31.600Z,96605.53
2019-02-27T13:21:20.187Z,96595.84
2019-02-27T13:24:06.020Z,96592.65
2019-02-27T13:26:54.200Z,96589.13
2019-02-27T13:29:42.462Z,96585.80
2019-02-27T13:32:30.563Z,96579.63
2019-02-27T13:35:20.134Z,96574.13
2019-02-27T13:38:08.441Z,96576.88
2019-02-27T13:40:56.679Z,96571.63
2019-02-27T13:43:45.316Z,96567.49
2019-02-27T13:46:32.916Z,96573.64
2019-02-27T13:49:21.186Z,96574.33
2019-02-27T13:52:12.312Z,96572.95
2019-02-27T13:54:58.765Z,96573.78
2019-02-27T13:57:47.016Z,96578.40
2019-02-27T14:00:35.012Z,96567.64
2019-02-27T14:03:22.894Z,96570.41
2019-02-27T14:06:11.238Z,96565.34
2019-02-27T14:08:59.240Z,96560.70
2019-02-27T14:11:47.245Z,96561.94
2019-02-27T14:14:35.373Z,96559.02
2019-02-27T14:17:23.363Z,96556.59
2019-02-27T14:20:13.580Z,96550.30
2019-02-27T14:23:01.519Z,96549.93
2019-02-27T14:25:49.748Z,96551.33
2019-02-27T14:28:37.652Z,96547.67
2019-02-27T14:31:25.656Z,96547.63
2019-02-27T14:34:13.475Z,96535.75
2019-02-27T14:37:01.721Z,96545.34
2019-02-27T14:39:49.844Z,96541.28
2019-02-27T14:42:38.146Z,96544.20
2019-02-27T14:45:26.146Z,96537.30
2019-02-27T14:48:13.763Z,96536.69
2019-02-27T14:51:01.694Z,96537.12
2019-02-27T14:53:52.633Z,96532.34
2019-02-27T14:56:41.612Z,96528.45
2019-02-27T14:59:31.332Z,96534.20
2019-02-27T15:02:22.066Z,96525.72
2019-02-27T15:05:09.283Z,96527.06
2019-02-27T15:07:57.112Z,96524.50
2019-02-27T15:10:45.465Z,96530.14
2019-02-27T15:13:33.698Z,96525.25
2019-02-27T15:16:21.860Z,96527.06
2019-02-27T15:19:09.731Z,96519.09
2019-02-27T15:21:58.063Z,96526.84
2019-02-27T15:24:46.366Z,96520.08
2019-02-27T15:27:34.228Z,96512.72
2019-02-27T15:30:23.515Z,96507.44
2019-02-27T15:33:11.562Z,96508.06
2019-02-27T15:36:00.084Z,96506.22
2019-02-27T15:38:48.012Z,96509.13
2019-02-27T15:41:36.195Z,96497.09
2019-02-27T15:44:24.232Z,96502.25
2019-02-27T15:47:12.657Z,96498.52
2019-02-27T15:50:02.615Z,96498.84
2019-02-27T15:52:50.068Z,96498.77
2019-02-27T15:55:38.006Z,96500.13
2019-02-27T15:58:28.176Z,96496.88
2019-02-27T16:01:15.372Z,96501.36
2019-02-27T16:04:03.368Z,96492.70
2019-02-27T16:06:51.477Z,96500.95
2019-02-27T16:09:39.599Z,96497.77
2019-02-27T16:12:27.906Z,96492.94
2019-02-27T16:15:16.954Z,96488.60
2019-02-27T16:18:05.635Z,96487.23
2019-02-27T16:20:53.708Z,96490.96
2019-02-27T16:23:41.538Z,96491.74
2019-02-27T16:26:29.599Z,96492.10
2019-02-27T16:29:19.971Z,96487.78
2019-02-27T16:32:07.326Z,96497.13
2019-02-27T16:34:55.487Z,96493.28
2019-02-27T16:37:43.798Z,96494.13
2019-02-27T16:40:31.969Z,96492.66
2019-02-27T16:43:19.879Z,96492.86
2019-02-27T16:46:08.851Z,96489.13
2019-02-27T16:48:56.748Z,96490.16
2019-02-27T16:51:44.573Z,96487.90
2019-02-27T16:54:32.355Z,96491.58
2019-02-27T16:57:24.186Z,96492.52
2019-02-27T17:00:10.592Z,96493.27
2019-02-27T17:02:58.385Z,96494.73
2019-02-27T17:05:46.354Z,96489.58
2019-02-27T17:08:35.654Z,96486.70
2019-02-27T17:11:23.618Z,96484.14
2019-02-27T17:14:11.856Z,96478.37
2019-02-27T17:16:59.975Z,96482.92
2019-02-27T17:19:48.224Z,96485.32
2019-02-27T17:22:36.278Z,96476.95
2019-02-27T17:25:29.058Z,96488.69
2019-02-27T17:28:14.482Z,96486.20
2019-02-27T17:31:04.159Z,96489.88
2019-02-27T17:33:52.703Z,96486.95
2019-02-27T17:36:40.602Z,96489.44
2019-02-27T17:39:30.564Z,96491.72
2019-02-27T17:42:19.339Z,96495.90
2019-02-27T17:45:10.107Z,96495.84
2019-02-27T17:47:57.857Z,96494.54
2019-02-27T17:50:49.543Z,96503.02
2019-02-27T17:53:37.819Z,96507.72
2019-02-27T17:56:25.674Z,96501.16
2019-02-27T17:59:13.893Z,96508.91
2019-02-27T18:02:01.958Z,96513.72
2019-02-27T18:04:53.017Z,96513.83
2019-02-27T18:07:40.316Z,96513.69
2019-02-27T18:10:28.751Z,96508.30
2019-02-27T18:13:16.663Z,96504.52
2019-02-27T18:16:04.787Z,96503.57
2019-02-27T18:18:52.882Z,96503.78
2019-02-27T18:21:40.917Z,96499.80
2019-02-27T18:24:33.324Z,96508.86
2019-02-27T18:27:18.960Z,96506.10
2019-02-27T18:30:07.910Z,96502.48
2019-02-27T18:32:56.287Z,96500.11
2019-02-27T18:35:44.262Z,96500.33
2019-02-27T18:38:32.405Z,96504.63
2019-02-27T18:41:20.541Z,96496.94
2019-02-27T18:44:09.054Z,96500.38
2019-02-27T18:46:59.785Z,96496.20
2019-02-27T18:49:49.048Z,96499.42
2019-02-27T18:52:38.233Z,96495.77
2019-02-27T18:55:29.601Z,96496.95
2019-02-27T18:58:14.660Z,96488.44
2019-02-27T19:01:02.617Z,96478.83
2019-02-27T19:03:50.540Z,96478.48
2019-02-27T19:06:38.843Z,96481.81
2019-02-27T19:09:29.295Z,96482.06
2019-02-27T19:12:16.785Z,96476.51
2019-02-27T19:15:05.023Z,96479.72
2019-02-27T19:17:53.077Z,96475.40
2019-02-27T19:20:41.201Z,96466.78
2019-02-27T19:23:29.432Z,96455.73
2019-02-27T19:26:17.504Z,96463.62
2019-02-27T19:29:05.934Z,96454.23
2019-02-27T19:31:53.856Z,96456.59
2019-02-27T19:34:44.723Z,96449.19
2019-02-27T19:37:32.005Z,96454.14
2019-02-27T19:40:20.518Z,96450.68
2019-02-27T19:43:08.337Z,96455.49
2019-02-27T19:45:56.702Z,96456.09
2019-02-27T19:48:45.043Z,96450.06
2019-02-27T19:51:33.253Z,96456.84
2019-02-27T19:54:21.255Z,96454.00
2019-02-27T19:57:09.459Z,96455.73
2019-02-27T19:59:59.109Z,96460.02
2019-02-27T20:02:47.183Z,96453.00
2019-02-27T20:05:36.385Z,96455.03
2019-02-27T20:08:26.350Z,96446.01
2019-02-27T20:11:14.624Z,96444.78
2019-02-27T20:14:03.165Z,96447.58
2019-02-27T20:16:54.920Z,96443.36
2019-02-27T20:19:40.465Z,96440.00
2019-02-27T20:22:28.524Z,96436.13
2019-02-27T20:25:18.016Z,96431.63
2019-02-27T20:28:06.079Z,96426.73
2019-02-27T20:30:53.749Z,96432.73
2019-02-27T20:33:41.654Z,96437.52
2019-02-27T20:36:32.389Z,96429.94
2019-02-27T20:39:18.878Z,96427.64
2019-02-27T20:42:07.296Z,96429.91
2019-02-27T20:44:55.310Z,96430.12
2019-02-27T20:47:43.581Z,96434.17
2019-02-27T20:50:35.768Z,96439.46
2019-02-27T20:53:23.707Z,96441.87
2019-02-27T20:56:11.941Z,96442.37
2019-02-27T20:59:02.005Z,96438.73
2019-02-27T21:01:49.664Z,96437.38
2019-02-27T21:04:39.168Z,96441.76
2019-02-27T21:07:27.131Z,96444.37
2019-02-27T21:10:21.009Z,96446.18
2019-02-27T21:13:06.821Z,96441.63
2019-02-27T21:15:54.782Z,96439.97
2019-02-27T21:18:42.631Z,96433.17
2019-02-27T21:21:30.639Z,96432.31
2019-02-27T21:24:18.722Z,96438.58
2019-02-27T21:27:06.406Z,96434.53
2019-02-27T21:29:54.760Z,96428.31
2019-02-27T21:32:42.515Z,96427.47
2019-02-27T21:35:30.679Z,96426.15
2019-02-27T21:38:18.375Z,96430.20
2019-02-27T21:41:11.359Z,96426.15
2019-02-27T21:43:56.574Z,96423.95
2019-02-27T21:46:47.245Z,96423.14
2019-02-27T21:49:35.548Z,96419.94
2019-02-27T21:52:23.559Z,96424.94
2019-02-27T21:55:13.004Z,96420.24
2019-02-27T21:58:01.442Z,96426.42
2019-02-27T22:00:49.458Z,96425.13
2019-02-27T22:03:38.392Z,96431.00
2019-02-27T22:06:27.438Z,96427.66
2019-02-27T22:09:15.678Z,96430.80
2019-02-27T22:12:03.468Z,96429.58
2019-02-27T22:14:51.105Z,96436.07
2019-02-27T22:17:38.838Z,96440.58
2019-02-27T22:20:26.973Z,96436.78
2019-02-27T22:23:15.195Z,96441.09
2019-02-27T22:26:04.273Z,96440.09
2019-02-27T22:28:54.347Z,96441.52
2019-02-27T22:31:41.740Z,96430.56
2019-02-27T22:34:29.983Z,96440.81
2019-02-27T22:37:18.566Z,96438.77
2019-02-27T22:40:08.179Z,96432.98
2019-02-27T22:42:56.255Z,96435.58
2019-02-27T22:45:44.390Z,96447.56
2019-02-27T22:48:32.516Z,96435.32
2019-02-27T22:51:20.461Z,96438.05
2019-02-27T22:54:08.663Z,96441.06
2019-02-27T22:56:56.871Z,96441.25
2019-02-27T22:59:45.177Z,96434.61
2019-02-27T23:02:33.410Z,96438.81
2019-02-27T23:05:21.258Z,96443.42
2019-02-27T23:08:09.307Z,96447.23
2019-02-27T23:10:57.990Z,96442.19
2019-02-27T23:13:48.418Z,96443.81
2019-02-27T23:16:36.364Z,96443.77
2019-02-27T23:19:24.417Z,96448.50
2019-02-27T23:22:12.410Z,96431.77
2019-02-27T23:25:00.531Z,96432.08
2019-02-27T23:27:48.362Z,96441.20
2019-02-27T23:30:36.216Z,96432.86
2019-02-27T23:33:24.722Z,96442.25
2019-02-27T23:36:12.947Z,96434.52
2019-02-27T23:39:01.142Z,96426.43
2019-02-27T23:41:48.642Z,96426.89
2019-02-27T23:44:38.785Z,96430.56
2019-02-27T23:47:28.702Z,96431.09
2019-02-27T23:50:15.807Z,96424.09
2019-02-27T23:53:03.315Z,96426.89
2019-02-27T23:55:51.170Z,96422.48
2019-02-27T23:58:39.414Z,96427.40
